<?xml version="1.0" encoding="UTF-8" standalone="no" ?>
<gpx xmlns="http://www.topografix.com/GPX/1/1" xmlns:xsi="http://www.w3.org/2001/XMLSchema-instance" xsi:schemaLocation="http://www.topografix.com/GPX/1/1 http://www.topografix.com/GPX/1/1/gpx.xsd" version="1.1" creator="VisuGPX - https://www.visugpx.com">
  <metadata>
    <name>Pampelonne circuit des crêtes</name>
  </metadata>
  <trk>
    <name><![CDATA[Pampelonne : les crêtes du Viaur par Thuriés-17695049]]></name>
    <trkseg>
      <trkpt lat="44.12302" lon="2.24433">
        <ele>425</ele>
        <time>2024-07-28T06:40:32Z</time>
      </trkpt>
      <trkpt lat="44.12308" lon="2.24447">
        <ele>425</ele>
        <time>2024-07-28T06:40:48Z</time>
      </trkpt>
      <trkpt lat="44.12314" lon="2.24474">
        <ele>426</ele>
        <time>2024-07-28T06:41:15Z</time>
      </trkpt>
      <trkpt lat="44.12316" lon="2.24533">
        <ele>427</ele>
        <time>2024-07-28T06:42:11Z</time>
      </trkpt>
      <trkpt lat="44.12323" lon="2.24591">
        <ele>428</ele>
        <time>2024-07-28T06:43:08Z</time>
      </trkpt>
      <trkpt lat="44.1233" lon="2.24605">
        <ele>429</ele>
        <time>2024-07-28T06:43:24Z</time>
      </trkpt>
      <trkpt lat="44.12334" lon="2.24618">
        <ele>429</ele>
        <time>2024-07-28T06:43:38Z</time>
      </trkpt>
      <trkpt lat="44.12372" lon="2.247">
        <ele>429</ele>
        <time>2024-07-28T06:45:11Z</time>
      </trkpt>
      <trkpt lat="44.12385" lon="2.24721">
        <ele>429</ele>
        <time>2024-07-28T06:45:38Z</time>
      </trkpt>
      <trkpt lat="44.1239" lon="2.24734">
        <ele>429</ele>
        <time>2024-07-28T06:45:52Z</time>
      </trkpt>
      <trkpt lat="44.12409" lon="2.24772">
        <ele>428</ele>
        <time>2024-07-28T06:46:36Z</time>
      </trkpt>
      <trkpt lat="44.12411" lon="2.24783">
        <ele>428</ele>
        <time>2024-07-28T06:46:47Z</time>
      </trkpt>
      <trkpt lat="44.12405" lon="2.248">
        <ele>427</ele>
        <time>2024-07-28T06:47:05Z</time>
      </trkpt>
      <trkpt lat="44.12402" lon="2.24814">
        <ele>426</ele>
        <time>2024-07-28T06:47:19Z</time>
      </trkpt>
      <trkpt lat="44.12394" lon="2.24841">
        <ele>423</ele>
        <time>2024-07-28T06:47:47Z</time>
      </trkpt>
      <trkpt lat="44.12377" lon="2.24923">
        <ele>413</ele>
        <time>2024-07-28T06:49:09Z</time>
      </trkpt>
      <trkpt lat="44.12372" lon="2.24964">
        <ele>407</ele>
        <time>2024-07-28T06:49:49Z</time>
      </trkpt>
      <trkpt lat="44.12379" lon="2.24993">
        <ele>404</ele>
        <time>2024-07-28T06:50:18Z</time>
      </trkpt>
      <trkpt lat="44.12395" lon="2.25029">
        <ele>401</ele>
        <time>2024-07-28T06:50:59Z</time>
      </trkpt>
      <trkpt lat="44.12398" lon="2.25043">
        <ele>400</ele>
        <time>2024-07-28T06:51:13Z</time>
      </trkpt>
      <trkpt lat="44.12406" lon="2.2507">
        <ele>398</ele>
        <time>2024-07-28T06:51:40Z</time>
      </trkpt>
      <trkpt lat="44.12413" lon="2.25114">
        <ele>393</ele>
        <time>2024-07-28T06:52:24Z</time>
      </trkpt>
      <trkpt lat="44.12416" lon="2.25127">
        <ele>392</ele>
        <time>2024-07-28T06:52:37Z</time>
      </trkpt>
      <trkpt lat="44.12429" lon="2.25156">
        <ele>390</ele>
        <time>2024-07-28T06:53:10Z</time>
      </trkpt>
      <trkpt lat="44.1244" lon="2.25168">
        <ele>389</ele>
        <time>2024-07-28T06:53:28Z</time>
      </trkpt>
      <trkpt lat="44.12463" lon="2.25183">
        <ele>388</ele>
        <time>2024-07-28T06:54:02Z</time>
      </trkpt>
      <trkpt lat="44.1249" lon="2.25212">
        <ele>386</ele>
        <time>2024-07-28T06:54:48Z</time>
      </trkpt>
      <trkpt lat="44.12484" lon="2.25234">
        <ele>379</ele>
        <time>2024-07-28T06:55:10Z</time>
      </trkpt>
      <trkpt lat="44.12478" lon="2.25252">
        <ele>373</ele>
        <time>2024-07-28T06:55:29Z</time>
      </trkpt>
      <trkpt lat="44.12471" lon="2.25266">
        <ele>368</ele>
        <time>2024-07-28T06:55:45Z</time>
      </trkpt>
      <trkpt lat="44.12467" lon="2.25283">
        <ele>363</ele>
        <time>2024-07-28T06:56:03Z</time>
      </trkpt>
      <trkpt lat="44.1246" lon="2.25302">
        <ele>356</ele>
        <time>2024-07-28T06:56:23Z</time>
      </trkpt>
      <trkpt lat="44.12469" lon="2.25314">
        <ele>359</ele>
        <time>2024-07-28T06:56:40Z</time>
      </trkpt>
      <trkpt lat="44.12485" lon="2.25369">
        <ele>355</ele>
        <time>2024-07-28T06:57:36Z</time>
      </trkpt>
      <trkpt lat="44.12488" lon="2.25386">
        <ele>352</ele>
        <time>2024-07-28T06:57:53Z</time>
      </trkpt>
      <trkpt lat="44.12485" lon="2.254">
        <ele>347</ele>
        <time>2024-07-28T06:58:07Z</time>
      </trkpt>
      <trkpt lat="44.12496" lon="2.25453">
        <ele>339</ele>
        <time>2024-07-28T06:59:00Z</time>
      </trkpt>
      <trkpt lat="44.12502" lon="2.25468">
        <ele>337</ele>
        <time>2024-07-28T06:59:17Z</time>
      </trkpt>
      <trkpt lat="44.12504" lon="2.25482">
        <ele>333</ele>
        <time>2024-07-28T06:59:30Z</time>
      </trkpt>
      <trkpt lat="44.12497" lon="2.25494">
        <ele>330</ele>
        <time>2024-07-28T06:59:45Z</time>
      </trkpt>
      <trkpt lat="44.12493" lon="2.25507">
        <ele>328</ele>
        <time>2024-07-28T06:59:59Z</time>
      </trkpt>
      <trkpt lat="44.12485" lon="2.25518">
        <ele>325</ele>
        <time>2024-07-28T07:00:14Z</time>
      </trkpt>
      <trkpt lat="44.1248" lon="2.25539">
        <ele>324</ele>
        <time>2024-07-28T07:00:35Z</time>
      </trkpt>
      <trkpt lat="44.12468" lon="2.25556">
        <ele>320</ele>
        <time>2024-07-28T07:00:58Z</time>
      </trkpt>
      <trkpt lat="44.12467" lon="2.25625">
        <ele>317</ele>
        <time>2024-07-28T07:02:04Z</time>
      </trkpt>
      <trkpt lat="44.12463" lon="2.25667">
        <ele>314</ele>
        <time>2024-07-28T07:02:44Z</time>
      </trkpt>
      <trkpt lat="44.12454" lon="2.25709">
        <ele>309</ele>
        <time>2024-07-28T07:03:26Z</time>
      </trkpt>
      <trkpt lat="44.1245" lon="2.25719">
        <ele>308</ele>
        <time>2024-07-28T07:03:37Z</time>
      </trkpt>
      <trkpt lat="44.12443" lon="2.25723">
        <ele>308</ele>
        <time>2024-07-28T07:03:47Z</time>
      </trkpt>
      <trkpt lat="44.12444" lon="2.25693">
        <ele>309</ele>
        <time>2024-07-28T07:04:16Z</time>
      </trkpt>
      <trkpt lat="44.1244" lon="2.25666">
        <ele>309</ele>
        <time>2024-07-28T07:04:43Z</time>
      </trkpt>
      <trkpt lat="44.12434" lon="2.25608">
        <ele>309</ele>
        <time>2024-07-28T07:05:39Z</time>
      </trkpt>
      <trkpt lat="44.12429" lon="2.25581">
        <ele>308</ele>
        <time>2024-07-28T07:06:05Z</time>
      </trkpt>
      <trkpt lat="44.12427" lon="2.25581">
        <ele>307</ele>
        <time>2024-07-28T07:06:08Z</time>
      </trkpt>
      <trkpt lat="44.12431" lon="2.25597">
        <ele>308</ele>
        <time>2024-07-28T07:06:24Z</time>
      </trkpt>
      <trkpt lat="44.1243" lon="2.2564">
        <ele>307</ele>
        <time>2024-07-28T07:07:05Z</time>
      </trkpt>
      <trkpt lat="44.12423" lon="2.25682">
        <ele>305</ele>
        <time>2024-07-28T07:07:47Z</time>
      </trkpt>
      <trkpt lat="44.1241" lon="2.25721">
        <ele>304</ele>
        <time>2024-07-28T07:08:28Z</time>
      </trkpt>
      <trkpt lat="44.12404" lon="2.25733">
        <ele>303</ele>
        <time>2024-07-28T07:08:42Z</time>
      </trkpt>
      <trkpt lat="44.12394" lon="2.25757">
        <ele>301</ele>
        <time>2024-07-28T07:09:09Z</time>
      </trkpt>
      <trkpt lat="44.12386" lon="2.25784">
        <ele>299</ele>
        <time>2024-07-28T07:09:37Z</time>
      </trkpt>
      <trkpt lat="44.12369" lon="2.25894">
        <ele>296</ele>
        <time>2024-07-28T07:11:24Z</time>
      </trkpt>
      <trkpt lat="44.12352" lon="2.25962">
        <ele>292</ele>
        <time>2024-07-28T07:12:33Z</time>
      </trkpt>
      <trkpt lat="44.12334" lon="2.25986">
        <ele>285</ele>
        <time>2024-07-28T07:13:07Z</time>
      </trkpt>
      <trkpt lat="44.12328" lon="2.25999">
        <ele>285</ele>
        <time>2024-07-28T07:13:21Z</time>
      </trkpt>
      <trkpt lat="44.12309" lon="2.26004">
        <ele>287</ele>
        <time>2024-07-28T07:13:47Z</time>
      </trkpt>
      <trkpt lat="44.123" lon="2.26002">
        <ele>288</ele>
        <time>2024-07-28T07:13:59Z</time>
      </trkpt>
      <trkpt lat="44.12294" lon="2.2599">
        <ele>288</ele>
        <time>2024-07-28T07:14:13Z</time>
      </trkpt>
      <trkpt lat="44.12265" lon="2.25944">
        <ele>292</ele>
        <time>2024-07-28T07:15:12Z</time>
      </trkpt>
      <trkpt lat="44.12259" lon="2.25975">
        <ele>292</ele>
        <time>2024-07-28T07:15:43Z</time>
      </trkpt>
      <trkpt lat="44.12261" lon="2.26003">
        <ele>291</ele>
        <time>2024-07-28T07:16:10Z</time>
      </trkpt>
      <trkpt lat="44.12276" lon="2.26079">
        <ele>292</ele>
        <time>2024-07-28T07:17:25Z</time>
      </trkpt>
      <trkpt lat="44.12289" lon="2.26108">
        <ele>292</ele>
        <time>2024-07-28T07:17:58Z</time>
      </trkpt>
      <trkpt lat="44.12292" lon="2.26122">
        <ele>292</ele>
        <time>2024-07-28T07:18:12Z</time>
      </trkpt>
      <trkpt lat="44.12296" lon="2.26138">
        <ele>292</ele>
        <time>2024-07-28T07:18:28Z</time>
      </trkpt>
      <trkpt lat="44.12297" lon="2.26158">
        <ele>293</ele>
        <time>2024-07-28T07:18:47Z</time>
      </trkpt>
      <trkpt lat="44.12279" lon="2.26161">
        <ele>298</ele>
        <time>2024-07-28T07:19:12Z</time>
      </trkpt>
      <trkpt lat="44.1228" lon="2.26188">
        <ele>301</ele>
        <time>2024-07-28T07:19:37Z</time>
      </trkpt>
      <trkpt lat="44.12274" lon="2.26204">
        <ele>306</ele>
        <time>2024-07-28T07:19:55Z</time>
      </trkpt>
      <trkpt lat="44.12255" lon="2.26172">
        <ele>306</ele>
        <time>2024-07-28T07:20:35Z</time>
      </trkpt>
      <trkpt lat="44.1225" lon="2.26127">
        <ele>301</ele>
        <time>2024-07-28T07:21:18Z</time>
      </trkpt>
      <trkpt lat="44.12245" lon="2.26107">
        <ele>302</ele>
        <time>2024-07-28T07:21:38Z</time>
      </trkpt>
      <trkpt lat="44.12238" lon="2.2609">
        <ele>305</ele>
        <time>2024-07-28T07:21:57Z</time>
      </trkpt>
      <trkpt lat="44.12228" lon="2.26071">
        <ele>310</ele>
        <time>2024-07-28T07:22:20Z</time>
      </trkpt>
      <trkpt lat="44.1222" lon="2.26062">
        <ele>314</ele>
        <time>2024-07-28T07:22:34Z</time>
      </trkpt>
      <trkpt lat="44.12214" lon="2.2606">
        <ele>318</ele>
        <time>2024-07-28T07:22:42Z</time>
      </trkpt>
      <trkpt lat="44.12212" lon="2.26108">
        <ele>323</ele>
        <time>2024-07-28T07:23:28Z</time>
      </trkpt>
      <trkpt lat="44.12204" lon="2.26096">
        <ele>327</ele>
        <time>2024-07-28T07:23:44Z</time>
      </trkpt>
      <trkpt lat="44.12195" lon="2.26042">
        <ele>329</ele>
        <time>2024-07-28T07:24:37Z</time>
      </trkpt>
      <trkpt lat="44.12195" lon="2.26013">
        <ele>328</ele>
        <time>2024-07-28T07:25:04Z</time>
      </trkpt>
      <trkpt lat="44.12199" lon="2.25971">
        <ele>326</ele>
        <time>2024-07-28T07:25:45Z</time>
      </trkpt>
      <trkpt lat="44.12193" lon="2.25954">
        <ele>331</ele>
        <time>2024-07-28T07:26:03Z</time>
      </trkpt>
      <trkpt lat="44.1219" lon="2.25937">
        <ele>334</ele>
        <time>2024-07-28T07:26:20Z</time>
      </trkpt>
      <trkpt lat="44.1219" lon="2.25919">
        <ele>334</ele>
        <time>2024-07-28T07:26:37Z</time>
      </trkpt>
      <trkpt lat="44.12194" lon="2.25902">
        <ele>333</ele>
        <time>2024-07-28T07:26:54Z</time>
      </trkpt>
      <trkpt lat="44.12193" lon="2.25882">
        <ele>335</ele>
        <time>2024-07-28T07:27:14Z</time>
      </trkpt>
      <trkpt lat="44.122" lon="2.25852">
        <ele>333</ele>
        <time>2024-07-28T07:27:44Z</time>
      </trkpt>
      <trkpt lat="44.12201" lon="2.25835">
        <ele>333</ele>
        <time>2024-07-28T07:28:00Z</time>
      </trkpt>
      <trkpt lat="44.12209" lon="2.25809">
        <ele>330</ele>
        <time>2024-07-28T07:28:27Z</time>
      </trkpt>
      <trkpt lat="44.12211" lon="2.25787">
        <ele>330</ele>
        <time>2024-07-28T07:28:48Z</time>
      </trkpt>
      <trkpt lat="44.12205" lon="2.25754">
        <ele>336</ele>
        <time>2024-07-28T07:29:21Z</time>
      </trkpt>
      <trkpt lat="44.12204" lon="2.25728">
        <ele>338</ele>
        <time>2024-07-28T07:29:46Z</time>
      </trkpt>
      <trkpt lat="44.12207" lon="2.25682">
        <ele>339</ele>
        <time>2024-07-28T07:30:30Z</time>
      </trkpt>
      <trkpt lat="44.12221" lon="2.25534">
        <ele>342</ele>
        <time>2024-07-28T07:32:53Z</time>
      </trkpt>
      <trkpt lat="44.12197" lon="2.25497">
        <ele>349</ele>
        <time>2024-07-28T07:33:41Z</time>
      </trkpt>
      <trkpt lat="44.12185" lon="2.25496">
        <ele>353</ele>
        <time>2024-07-28T07:33:57Z</time>
      </trkpt>
      <trkpt lat="44.1218" lon="2.25516">
        <ele>356</ele>
        <time>2024-07-28T07:34:17Z</time>
      </trkpt>
      <trkpt lat="44.12182" lon="2.25537">
        <ele>357</ele>
        <time>2024-07-28T07:34:38Z</time>
      </trkpt>
      <trkpt lat="44.1217" lon="2.2557">
        <ele>363</ele>
        <time>2024-07-28T07:35:13Z</time>
      </trkpt>
      <trkpt lat="44.12164" lon="2.25602">
        <ele>363</ele>
        <time>2024-07-28T07:35:45Z</time>
      </trkpt>
      <trkpt lat="44.12156" lon="2.25614">
        <ele>359</ele>
        <time>2024-07-28T07:36:00Z</time>
      </trkpt>
      <trkpt lat="44.1215" lon="2.25633">
        <ele>357</ele>
        <time>2024-07-28T07:36:20Z</time>
      </trkpt>
      <trkpt lat="44.12149" lon="2.25652">
        <ele>356</ele>
        <time>2024-07-28T07:36:39Z</time>
      </trkpt>
      <trkpt lat="44.12154" lon="2.25667">
        <ele>357</ele>
        <time>2024-07-28T07:36:54Z</time>
      </trkpt>
      <trkpt lat="44.12147" lon="2.25688">
        <ele>356</ele>
        <time>2024-07-28T07:37:17Z</time>
      </trkpt>
      <trkpt lat="44.12133" lon="2.25769">
        <ele>357</ele>
        <time>2024-07-28T07:38:36Z</time>
      </trkpt>
      <trkpt lat="44.12124" lon="2.25796">
        <ele>359</ele>
        <time>2024-07-28T07:39:05Z</time>
      </trkpt>
      <trkpt lat="44.12122" lon="2.25808">
        <ele>360</ele>
        <time>2024-07-28T07:39:17Z</time>
      </trkpt>
      <trkpt lat="44.12125" lon="2.25821">
        <ele>361</ele>
        <time>2024-07-28T07:39:30Z</time>
      </trkpt>
      <trkpt lat="44.12119" lon="2.25833">
        <ele>363</ele>
        <time>2024-07-28T07:39:44Z</time>
      </trkpt>
      <trkpt lat="44.12112" lon="2.25842">
        <ele>365</ele>
        <time>2024-07-28T07:39:56Z</time>
      </trkpt>
      <trkpt lat="44.12104" lon="2.25866">
        <ele>368</ele>
        <time>2024-07-28T07:40:22Z</time>
      </trkpt>
      <trkpt lat="44.121" lon="2.25894">
        <ele>370</ele>
        <time>2024-07-28T07:40:49Z</time>
      </trkpt>
      <trkpt lat="44.12099" lon="2.25909">
        <ele>371</ele>
        <time>2024-07-28T07:41:04Z</time>
      </trkpt>
      <trkpt lat="44.12094" lon="2.25922">
        <ele>374</ele>
        <time>2024-07-28T07:41:18Z</time>
      </trkpt>
      <trkpt lat="44.12092" lon="2.25936">
        <ele>375</ele>
        <time>2024-07-28T07:41:31Z</time>
      </trkpt>
      <trkpt lat="44.12086" lon="2.25949">
        <ele>377</ele>
        <time>2024-07-28T07:41:46Z</time>
      </trkpt>
      <trkpt lat="44.12079" lon="2.25947">
        <ele>376</ele>
        <time>2024-07-28T07:41:56Z</time>
      </trkpt>
      <trkpt lat="44.12081" lon="2.25975">
        <ele>378</ele>
        <time>2024-07-28T07:42:23Z</time>
      </trkpt>
      <trkpt lat="44.12075" lon="2.25985">
        <ele>377</ele>
        <time>2024-07-28T07:42:35Z</time>
      </trkpt>
      <trkpt lat="44.12072" lon="2.25998">
        <ele>376</ele>
        <time>2024-07-28T07:42:48Z</time>
      </trkpt>
      <trkpt lat="44.12067" lon="2.26042">
        <ele>379</ele>
        <time>2024-07-28T07:43:31Z</time>
      </trkpt>
      <trkpt lat="44.1207" lon="2.26057">
        <ele>381</ele>
        <time>2024-07-28T07:43:46Z</time>
      </trkpt>
      <trkpt lat="44.12065" lon="2.26069">
        <ele>380</ele>
        <time>2024-07-28T07:43:59Z</time>
      </trkpt>
      <trkpt lat="44.12067" lon="2.26099">
        <ele>383</ele>
        <time>2024-07-28T07:44:28Z</time>
      </trkpt>
      <trkpt lat="44.12064" lon="2.26113">
        <ele>383</ele>
        <time>2024-07-28T07:44:42Z</time>
      </trkpt>
      <trkpt lat="44.12064" lon="2.26128">
        <ele>384</ele>
        <time>2024-07-28T07:44:56Z</time>
      </trkpt>
      <trkpt lat="44.1207" lon="2.26171">
        <ele>389</ele>
        <time>2024-07-28T07:45:38Z</time>
      </trkpt>
      <trkpt lat="44.12069" lon="2.26186">
        <ele>389</ele>
        <time>2024-07-28T07:45:53Z</time>
      </trkpt>
      <trkpt lat="44.12065" lon="2.262">
        <ele>387</ele>
        <time>2024-07-28T07:46:07Z</time>
      </trkpt>
      <trkpt lat="44.12066" lon="2.26214">
        <ele>387</ele>
        <time>2024-07-28T07:46:21Z</time>
      </trkpt>
      <trkpt lat="44.12073" lon="2.26224">
        <ele>389</ele>
        <time>2024-07-28T07:46:34Z</time>
      </trkpt>
      <trkpt lat="44.12081" lon="2.26232">
        <ele>392</ele>
        <time>2024-07-28T07:46:47Z</time>
      </trkpt>
      <trkpt lat="44.12101" lon="2.26266">
        <ele>388</ele>
        <time>2024-07-28T07:47:29Z</time>
      </trkpt>
      <trkpt lat="44.12105" lon="2.26281">
        <ele>388</ele>
        <time>2024-07-28T07:47:45Z</time>
      </trkpt>
      <trkpt lat="44.12105" lon="2.26296">
        <ele>388</ele>
        <time>2024-07-28T07:47:59Z</time>
      </trkpt>
      <trkpt lat="44.12106" lon="2.26309">
        <ele>389</ele>
        <time>2024-07-28T07:48:12Z</time>
      </trkpt>
      <trkpt lat="44.12104" lon="2.26323">
        <ele>390</ele>
        <time>2024-07-28T07:48:25Z</time>
      </trkpt>
      <trkpt lat="44.12122" lon="2.26387">
        <ele>394</ele>
        <time>2024-07-28T07:49:31Z</time>
      </trkpt>
      <trkpt lat="44.12136" lon="2.26404">
        <ele>397</ele>
        <time>2024-07-28T07:49:56Z</time>
      </trkpt>
      <trkpt lat="44.12135" lon="2.26425">
        <ele>399</ele>
        <time>2024-07-28T07:50:16Z</time>
      </trkpt>
      <trkpt lat="44.12154" lon="2.26475">
        <ele>405</ele>
        <time>2024-07-28T07:51:10Z</time>
      </trkpt>
      <trkpt lat="44.12172" lon="2.26536">
        <ele>409</ele>
        <time>2024-07-28T07:52:13Z</time>
      </trkpt>
      <trkpt lat="44.12192" lon="2.26637">
        <ele>411</ele>
        <time>2024-07-28T07:53:54Z</time>
      </trkpt>
      <trkpt lat="44.12204" lon="2.26651">
        <ele>412</ele>
        <time>2024-07-28T07:54:15Z</time>
      </trkpt>
      <trkpt lat="44.12212" lon="2.26665">
        <ele>414</ele>
        <time>2024-07-28T07:54:32Z</time>
      </trkpt>
      <trkpt lat="44.12224" lon="2.26676">
        <ele>415</ele>
        <time>2024-07-28T07:54:51Z</time>
      </trkpt>
      <trkpt lat="44.12243" lon="2.26687">
        <ele>418</ele>
        <time>2024-07-28T07:55:18Z</time>
      </trkpt>
      <trkpt lat="44.12264" lon="2.26691">
        <ele>418</ele>
        <time>2024-07-28T07:55:47Z</time>
      </trkpt>
      <trkpt lat="44.12288" lon="2.2669">
        <ele>416</ele>
        <time>2024-07-28T07:56:19Z</time>
      </trkpt>
      <trkpt lat="44.12325" lon="2.26693">
        <ele>414</ele>
        <time>2024-07-28T07:57:08Z</time>
      </trkpt>
      <trkpt lat="44.12336" lon="2.26697">
        <ele>414</ele>
        <time>2024-07-28T07:57:23Z</time>
      </trkpt>
      <trkpt lat="44.12372" lon="2.26701">
        <ele>413</ele>
        <time>2024-07-28T07:58:12Z</time>
      </trkpt>
      <trkpt lat="44.12383" lon="2.26706">
        <ele>414</ele>
        <time>2024-07-28T07:58:27Z</time>
      </trkpt>
      <trkpt lat="44.12396" lon="2.26709">
        <ele>415</ele>
        <time>2024-07-28T07:58:45Z</time>
      </trkpt>
      <trkpt lat="44.12408" lon="2.26706">
        <ele>414</ele>
        <time>2024-07-28T07:59:01Z</time>
      </trkpt>
      <trkpt lat="44.12433" lon="2.26694">
        <ele>408</ele>
        <time>2024-07-28T07:59:36Z</time>
      </trkpt>
      <trkpt lat="44.12442" lon="2.26704">
        <ele>412</ele>
        <time>2024-07-28T07:59:52Z</time>
      </trkpt>
      <trkpt lat="44.12458" lon="2.26716">
        <ele>416</ele>
        <time>2024-07-28T08:00:16Z</time>
      </trkpt>
      <trkpt lat="44.1247" lon="2.26723">
        <ele>418</ele>
        <time>2024-07-28T08:00:33Z</time>
      </trkpt>
      <trkpt lat="44.12488" lon="2.26729">
        <ele>420</ele>
        <time>2024-07-28T08:00:58Z</time>
      </trkpt>
      <trkpt lat="44.12503" lon="2.26726">
        <ele>418</ele>
        <time>2024-07-28T08:01:18Z</time>
      </trkpt>
      <trkpt lat="44.12516" lon="2.26718">
        <ele>417</ele>
        <time>2024-07-28T08:01:37Z</time>
      </trkpt>
      <trkpt lat="44.12527" lon="2.26701">
        <ele>411</ele>
        <time>2024-07-28T08:01:59Z</time>
      </trkpt>
      <trkpt lat="44.12536" lon="2.26691">
        <ele>408</ele>
        <time>2024-07-28T08:02:14Z</time>
      </trkpt>
      <trkpt lat="44.12581" lon="2.26673">
        <ele>405</ele>
        <time>2024-07-28T08:03:17Z</time>
      </trkpt>
      <trkpt lat="44.12618" lon="2.26666">
        <ele>409</ele>
        <time>2024-07-28T08:04:07Z</time>
      </trkpt>
      <trkpt lat="44.12631" lon="2.26657">
        <ele>408</ele>
        <time>2024-07-28T08:04:26Z</time>
      </trkpt>
      <trkpt lat="44.12653" lon="2.26625">
        <ele>401</ele>
        <time>2024-07-28T08:05:08Z</time>
      </trkpt>
      <trkpt lat="44.12678" lon="2.26609">
        <ele>398</ele>
        <time>2024-07-28T08:05:45Z</time>
      </trkpt>
      <trkpt lat="44.12688" lon="2.26595">
        <ele>395</ele>
        <time>2024-07-28T08:06:04Z</time>
      </trkpt>
      <trkpt lat="44.12716" lon="2.26548">
        <ele>386</ele>
        <time>2024-07-28T08:07:03Z</time>
      </trkpt>
      <trkpt lat="44.12728" lon="2.26543">
        <ele>386</ele>
        <time>2024-07-28T08:07:19Z</time>
      </trkpt>
      <trkpt lat="44.12759" lon="2.2655">
        <ele>391</ele>
        <time>2024-07-28T08:08:01Z</time>
      </trkpt>
      <trkpt lat="44.12793" lon="2.26566">
        <ele>390</ele>
        <time>2024-07-28T08:08:49Z</time>
      </trkpt>
      <trkpt lat="44.12818" lon="2.26575">
        <ele>388</ele>
        <time>2024-07-28T08:09:24Z</time>
      </trkpt>
      <trkpt lat="44.12851" lon="2.26572">
        <ele>387</ele>
        <time>2024-07-28T08:10:08Z</time>
      </trkpt>
      <trkpt lat="44.12867" lon="2.26573">
        <ele>388</ele>
        <time>2024-07-28T08:10:29Z</time>
      </trkpt>
      <trkpt lat="44.12901" lon="2.26601">
        <ele>390</ele>
        <time>2024-07-28T08:11:22Z</time>
      </trkpt>
      <trkpt lat="44.12911" lon="2.26628">
        <ele>391</ele>
        <time>2024-07-28T08:11:51Z</time>
      </trkpt>
      <trkpt lat="44.12918" lon="2.2664">
        <ele>391</ele>
        <time>2024-07-28T08:12:06Z</time>
      </trkpt>
      <trkpt lat="44.1294" lon="2.26673">
        <ele>393</ele>
        <time>2024-07-28T08:12:49Z</time>
      </trkpt>
      <trkpt lat="44.12953" lon="2.26697">
        <ele>394</ele>
        <time>2024-07-28T08:13:18Z</time>
      </trkpt>
      <trkpt lat="44.12961" lon="2.267">
        <ele>394</ele>
        <time>2024-07-28T08:13:29Z</time>
      </trkpt>
      <trkpt lat="44.12968" lon="2.26693">
        <ele>394</ele>
        <time>2024-07-28T08:13:40Z</time>
      </trkpt>
      <trkpt lat="44.12974" lon="2.26679">
        <ele>394</ele>
        <time>2024-07-28T08:13:56Z</time>
      </trkpt>
      <trkpt lat="44.12992" lon="2.26654">
        <ele>394</ele>
        <time>2024-07-28T08:14:30Z</time>
      </trkpt>
      <trkpt lat="44.12995" lon="2.26639">
        <ele>395</ele>
        <time>2024-07-28T08:14:45Z</time>
      </trkpt>
      <trkpt lat="44.12992" lon="2.26596">
        <ele>397</ele>
        <time>2024-07-28T08:15:26Z</time>
      </trkpt>
      <trkpt lat="44.12984" lon="2.26552">
        <ele>397</ele>
        <time>2024-07-28T08:16:09Z</time>
      </trkpt>
      <trkpt lat="44.1296" lon="2.26462">
        <ele>398</ele>
        <time>2024-07-28T08:17:41Z</time>
      </trkpt>
      <trkpt lat="44.12954" lon="2.26445">
        <ele>398</ele>
        <time>2024-07-28T08:18:00Z</time>
      </trkpt>
      <trkpt lat="44.12949" lon="2.26416">
        <ele>400</ele>
        <time>2024-07-28T08:18:28Z</time>
      </trkpt>
      <trkpt lat="44.12947" lon="2.26401">
        <ele>399</ele>
        <time>2024-07-28T08:18:43Z</time>
      </trkpt>
      <trkpt lat="44.12942" lon="2.26316">
        <ele>395</ele>
        <time>2024-07-28T08:20:04Z</time>
      </trkpt>
      <trkpt lat="44.12934" lon="2.26256">
        <ele>391</ele>
        <time>2024-07-28T08:21:03Z</time>
      </trkpt>
      <trkpt lat="44.12918" lon="2.26212">
        <ele>392</ele>
        <time>2024-07-28T08:21:50Z</time>
      </trkpt>
      <trkpt lat="44.12915" lon="2.26196">
        <ele>391</ele>
        <time>2024-07-28T08:22:06Z</time>
      </trkpt>
      <trkpt lat="44.129" lon="2.26143">
        <ele>385</ele>
        <time>2024-07-28T08:23:01Z</time>
      </trkpt>
      <trkpt lat="44.12897" lon="2.26127">
        <ele>383</ele>
        <time>2024-07-28T08:23:16Z</time>
      </trkpt>
      <trkpt lat="44.12893" lon="2.26075">
        <ele>377</ele>
        <time>2024-07-28T08:24:06Z</time>
      </trkpt>
      <trkpt lat="44.12891" lon="2.26004">
        <ele>368</ele>
        <time>2024-07-28T08:25:15Z</time>
      </trkpt>
      <trkpt lat="44.12888" lon="2.25987">
        <ele>366</ele>
        <time>2024-07-28T08:25:31Z</time>
      </trkpt>
      <trkpt lat="44.12888" lon="2.25961">
        <ele>364</ele>
        <time>2024-07-28T08:25:56Z</time>
      </trkpt>
      <trkpt lat="44.12881" lon="2.25918">
        <ele>360</ele>
        <time>2024-07-28T08:26:38Z</time>
      </trkpt>
      <trkpt lat="44.12892" lon="2.25903">
        <ele>355</ele>
        <time>2024-07-28T08:26:59Z</time>
      </trkpt>
      <trkpt lat="44.12907" lon="2.25901">
        <ele>353</ele>
        <time>2024-07-28T08:27:19Z</time>
      </trkpt>
      <trkpt lat="44.12921" lon="2.25905">
        <ele>351</ele>
        <time>2024-07-28T08:27:38Z</time>
      </trkpt>
      <trkpt lat="44.12931" lon="2.25921">
        <ele>349</ele>
        <time>2024-07-28T08:27:58Z</time>
      </trkpt>
      <trkpt lat="44.12945" lon="2.25955">
        <ele>346</ele>
        <time>2024-07-28T08:28:36Z</time>
      </trkpt>
      <trkpt lat="44.12945" lon="2.25972">
        <ele>348</ele>
        <time>2024-07-28T08:28:52Z</time>
      </trkpt>
      <trkpt lat="44.12951" lon="2.2599">
        <ele>347</ele>
        <time>2024-07-28T08:29:11Z</time>
      </trkpt>
      <trkpt lat="44.12958" lon="2.2597">
        <ele>342</ele>
        <time>2024-07-28T08:29:33Z</time>
      </trkpt>
      <trkpt lat="44.12964" lon="2.25931">
        <ele>334</ele>
        <time>2024-07-28T08:30:11Z</time>
      </trkpt>
      <trkpt lat="44.12959" lon="2.25864">
        <ele>324</ele>
        <time>2024-07-28T08:31:15Z</time>
      </trkpt>
      <trkpt lat="44.12952" lon="2.25815">
        <ele>314</ele>
        <time>2024-07-28T08:32:03Z</time>
      </trkpt>
      <trkpt lat="44.12943" lon="2.25809">
        <ele>315</ele>
        <time>2024-07-28T08:32:17Z</time>
      </trkpt>
      <trkpt lat="44.12925" lon="2.25782">
        <ele>309</ele>
        <time>2024-07-28T08:32:52Z</time>
      </trkpt>
      <trkpt lat="44.12889" lon="2.25771">
        <ele>311</ele>
        <time>2024-07-28T08:33:41Z</time>
      </trkpt>
      <trkpt lat="44.1287" lon="2.25756">
        <ele>308</ele>
        <time>2024-07-28T08:34:10Z</time>
      </trkpt>
      <trkpt lat="44.12865" lon="2.25743">
        <ele>304</ele>
        <time>2024-07-28T08:34:24Z</time>
      </trkpt>
      <trkpt lat="44.12884" lon="2.25735">
        <ele>297</ele>
        <time>2024-07-28T08:34:51Z</time>
      </trkpt>
      <trkpt lat="44.12867" lon="2.25732">
        <ele>299</ele>
        <time>2024-07-28T08:35:14Z</time>
      </trkpt>
      <trkpt lat="44.12845" lon="2.25716">
        <ele>297</ele>
        <time>2024-07-28T08:35:47Z</time>
      </trkpt>
      <trkpt lat="44.12789" lon="2.25686">
        <ele>288</ele>
        <time>2024-07-28T08:37:07Z</time>
      </trkpt>
      <trkpt lat="44.12767" lon="2.25669">
        <ele>284</ele>
        <time>2024-07-28T08:37:40Z</time>
      </trkpt>
      <trkpt lat="44.12754" lon="2.25657">
        <ele>282</ele>
        <time>2024-07-28T08:38:01Z</time>
      </trkpt>
      <trkpt lat="44.12742" lon="2.25651">
        <ele>280</ele>
        <time>2024-07-28T08:38:18Z</time>
      </trkpt>
      <trkpt lat="44.12719" lon="2.25642">
        <ele>276</ele>
        <time>2024-07-28T08:38:50Z</time>
      </trkpt>
      <trkpt lat="44.12708" lon="2.25641">
        <ele>275</ele>
        <time>2024-07-28T08:39:05Z</time>
      </trkpt>
      <trkpt lat="44.12695" lon="2.25643">
        <ele>274</ele>
        <time>2024-07-28T08:39:22Z</time>
      </trkpt>
      <trkpt lat="44.12663" lon="2.25681">
        <ele>274</ele>
        <time>2024-07-28T08:40:18Z</time>
      </trkpt>
      <trkpt lat="44.12649" lon="2.25683">
        <ele>274</ele>
        <time>2024-07-28T08:40:37Z</time>
      </trkpt>
      <trkpt lat="44.12637" lon="2.25681">
        <ele>275</ele>
        <time>2024-07-28T08:40:53Z</time>
      </trkpt>
      <trkpt lat="44.12627" lon="2.25672">
        <ele>275</ele>
        <time>2024-07-28T08:41:09Z</time>
      </trkpt>
      <trkpt lat="44.12612" lon="2.25671">
        <ele>276</ele>
        <time>2024-07-28T08:41:29Z</time>
      </trkpt>
      <trkpt lat="44.12602" lon="2.25647">
        <ele>277</ele>
        <time>2024-07-28T08:41:56Z</time>
      </trkpt>
      <trkpt lat="44.12579" lon="2.25638">
        <ele>281</ele>
        <time>2024-07-28T08:42:28Z</time>
      </trkpt>
      <trkpt lat="44.1257" lon="2.25637">
        <ele>286</ele>
        <time>2024-07-28T08:42:40Z</time>
      </trkpt>
      <trkpt lat="44.12565" lon="2.25645">
        <ele>288</ele>
        <time>2024-07-28T08:42:50Z</time>
      </trkpt>
      <trkpt lat="44.12574" lon="2.25631">
        <ele>284</ele>
        <time>2024-07-28T08:43:08Z</time>
      </trkpt>
      <trkpt lat="44.12586" lon="2.25602">
        <ele>280</ele>
        <time>2024-07-28T08:43:40Z</time>
      </trkpt>
      <trkpt lat="44.12594" lon="2.25552">
        <ele>286</ele>
        <time>2024-07-28T08:44:29Z</time>
      </trkpt>
      <trkpt lat="44.12625" lon="2.25496">
        <ele>286</ele>
        <time>2024-07-28T08:45:37Z</time>
      </trkpt>
      <trkpt lat="44.12644" lon="2.25467">
        <ele>290</ele>
        <time>2024-07-28T08:46:14Z</time>
      </trkpt>
      <trkpt lat="44.12683" lon="2.25451">
        <ele>288</ele>
        <time>2024-07-28T08:47:09Z</time>
      </trkpt>
      <trkpt lat="44.12701" lon="2.25451">
        <ele>289</ele>
        <time>2024-07-28T08:47:33Z</time>
      </trkpt>
      <trkpt lat="44.12735" lon="2.25456">
        <ele>289</ele>
        <time>2024-07-28T08:48:18Z</time>
      </trkpt>
      <trkpt lat="44.12779" lon="2.25476">
        <ele>289</ele>
        <time>2024-07-28T08:49:20Z</time>
      </trkpt>
      <trkpt lat="44.12804" lon="2.25492">
        <ele>288</ele>
        <time>2024-07-28T08:49:57Z</time>
      </trkpt>
      <trkpt lat="44.12874" lon="2.25558">
        <ele>279</ele>
        <time>2024-07-28T08:51:50Z</time>
      </trkpt>
      <trkpt lat="44.12898" lon="2.2557">
        <ele>276</ele>
        <time>2024-07-28T08:52:24Z</time>
      </trkpt>
      <trkpt lat="44.12947" lon="2.25561">
        <ele>281</ele>
        <time>2024-07-28T08:53:30Z</time>
      </trkpt>
      <trkpt lat="44.12997" lon="2.25513">
        <ele>281</ele>
        <time>2024-07-28T08:54:51Z</time>
      </trkpt>
      <trkpt lat="44.13068" lon="2.25429">
        <ele>284</ele>
        <time>2024-07-28T08:56:55Z</time>
      </trkpt>
      <trkpt lat="44.13125" lon="2.2535">
        <ele>289</ele>
        <time>2024-07-28T08:58:42Z</time>
      </trkpt>
      <trkpt lat="44.13182" lon="2.25206">
        <ele>283</ele>
        <time>2024-07-28T09:01:20Z</time>
      </trkpt>
      <trkpt lat="44.13195" lon="2.25151">
        <ele>287</ele>
        <time>2024-07-28T09:02:15Z</time>
      </trkpt>
      <trkpt lat="44.13195" lon="2.25062">
        <ele>290</ele>
        <time>2024-07-28T09:03:40Z</time>
      </trkpt>
      <trkpt lat="44.13262" lon="2.24815">
        <ele>282</ele>
        <time>2024-07-28T09:07:53Z</time>
      </trkpt>
      <trkpt lat="44.13264" lon="2.24753">
        <ele>284</ele>
        <time>2024-07-28T09:08:53Z</time>
      </trkpt>
      <trkpt lat="44.13262" lon="2.2463">
        <ele>290</ele>
        <time>2024-07-28T09:10:51Z</time>
      </trkpt>
      <trkpt lat="44.13264" lon="2.24533">
        <ele>294</ele>
        <time>2024-07-28T09:12:23Z</time>
      </trkpt>
      <trkpt lat="44.13278" lon="2.24533">
        <ele>292</ele>
        <time>2024-07-28T09:12:42Z</time>
      </trkpt>
      <trkpt lat="44.13289" lon="2.2454">
        <ele>290</ele>
        <time>2024-07-28T09:12:58Z</time>
      </trkpt>
      <trkpt lat="44.13278" lon="2.24545">
        <ele>291</ele>
        <time>2024-07-28T09:13:14Z</time>
      </trkpt>
      <trkpt lat="44.13267" lon="2.24543">
        <ele>293</ele>
        <time>2024-07-28T09:13:29Z</time>
      </trkpt>
      <trkpt lat="44.13254" lon="2.24556">
        <ele>293</ele>
        <time>2024-07-28T09:13:50Z</time>
      </trkpt>
      <trkpt lat="44.13253" lon="2.24624">
        <ele>290</ele>
        <time>2024-07-28T09:14:55Z</time>
      </trkpt>
      <trkpt lat="44.13244" lon="2.24659">
        <ele>293</ele>
        <time>2024-07-28T09:15:31Z</time>
      </trkpt>
      <trkpt lat="44.13242" lon="2.24697">
        <ele>292</ele>
        <time>2024-07-28T09:16:07Z</time>
      </trkpt>
      <trkpt lat="44.13216" lon="2.2471">
        <ele>310</ele>
        <time>2024-07-28T09:16:44Z</time>
      </trkpt>
      <trkpt lat="44.13225" lon="2.24688">
        <ele>305</ele>
        <time>2024-07-28T09:17:08Z</time>
      </trkpt>
      <trkpt lat="44.13205" lon="2.24629">
        <ele>321</ele>
        <time>2024-07-28T09:18:11Z</time>
      </trkpt>
      <trkpt lat="44.13208" lon="2.24612">
        <ele>319</ele>
        <time>2024-07-28T09:18:28Z</time>
      </trkpt>
      <trkpt lat="44.13204" lon="2.2459">
        <ele>322</ele>
        <time>2024-07-28T09:18:49Z</time>
      </trkpt>
      <trkpt lat="44.13196" lon="2.2457">
        <ele>329</ele>
        <time>2024-07-28T09:19:11Z</time>
      </trkpt>
      <trkpt lat="44.13195" lon="2.24516">
        <ele>336</ele>
        <time>2024-07-28T09:20:03Z</time>
      </trkpt>
      <trkpt lat="44.13213" lon="2.24485">
        <ele>329</ele>
        <time>2024-07-28T09:20:41Z</time>
      </trkpt>
      <trkpt lat="44.1322" lon="2.24467">
        <ele>330</ele>
        <time>2024-07-28T09:21:01Z</time>
      </trkpt>
      <trkpt lat="44.13223" lon="2.24448">
        <ele>333</ele>
        <time>2024-07-28T09:21:19Z</time>
      </trkpt>
      <trkpt lat="44.13231" lon="2.24416">
        <ele>338</ele>
        <time>2024-07-28T09:21:52Z</time>
      </trkpt>
      <trkpt lat="44.13248" lon="2.24403">
        <ele>333</ele>
        <time>2024-07-28T09:22:18Z</time>
      </trkpt>
      <trkpt lat="44.13256" lon="2.24385">
        <ele>336</ele>
        <time>2024-07-28T09:22:38Z</time>
      </trkpt>
      <trkpt lat="44.13268" lon="2.24373">
        <ele>336</ele>
        <time>2024-07-28T09:22:58Z</time>
      </trkpt>
      <trkpt lat="44.13284" lon="2.24363">
        <ele>335</ele>
        <time>2024-07-28T09:23:21Z</time>
      </trkpt>
      <trkpt lat="44.1331" lon="2.24358">
        <ele>332</ele>
        <time>2024-07-28T09:23:56Z</time>
      </trkpt>
      <trkpt lat="44.13323" lon="2.2435">
        <ele>333</ele>
        <time>2024-07-28T09:24:15Z</time>
      </trkpt>
      <trkpt lat="44.13341" lon="2.24345">
        <ele>333</ele>
        <time>2024-07-28T09:24:40Z</time>
      </trkpt>
      <trkpt lat="44.13354" lon="2.24334">
        <ele>337</ele>
        <time>2024-07-28T09:25:00Z</time>
      </trkpt>
      <trkpt lat="44.13369" lon="2.24326">
        <ele>336</ele>
        <time>2024-07-28T09:25:21Z</time>
      </trkpt>
      <trkpt lat="44.13382" lon="2.24322">
        <ele>335</ele>
        <time>2024-07-28T09:25:39Z</time>
      </trkpt>
      <trkpt lat="44.13407" lon="2.24315">
        <ele>332</ele>
        <time>2024-07-28T09:26:13Z</time>
      </trkpt>
      <trkpt lat="44.1342" lon="2.24322">
        <ele>328</ele>
        <time>2024-07-28T09:26:32Z</time>
      </trkpt>
      <trkpt lat="44.13433" lon="2.24323">
        <ele>321</ele>
        <time>2024-07-28T09:26:49Z</time>
      </trkpt>
      <trkpt lat="44.1345" lon="2.24307">
        <ele>314</ele>
        <time>2024-07-28T09:27:16Z</time>
      </trkpt>
      <trkpt lat="44.13456" lon="2.24295">
        <ele>313</ele>
        <time>2024-07-28T09:27:30Z</time>
      </trkpt>
      <trkpt lat="44.13461" lon="2.24259">
        <ele>314</ele>
        <time>2024-07-28T09:28:06Z</time>
      </trkpt>
      <trkpt lat="44.13441" lon="2.24245">
        <ele>324</ele>
        <time>2024-07-28T09:28:35Z</time>
      </trkpt>
      <trkpt lat="44.13429" lon="2.24241">
        <ele>330</ele>
        <time>2024-07-28T09:28:52Z</time>
      </trkpt>
      <trkpt lat="44.13368" lon="2.2425">
        <ele>346</ele>
        <time>2024-07-28T09:30:14Z</time>
      </trkpt>
      <trkpt lat="44.13333" lon="2.24257">
        <ele>350</ele>
        <time>2024-07-28T09:31:01Z</time>
      </trkpt>
      <trkpt lat="44.13304" lon="2.24268">
        <ele>352</ele>
        <time>2024-07-28T09:31:41Z</time>
      </trkpt>
      <trkpt lat="44.1329" lon="2.24271">
        <ele>353</ele>
        <time>2024-07-28T09:32:00Z</time>
      </trkpt>
      <trkpt lat="44.13274" lon="2.24284">
        <ele>353</ele>
        <time>2024-07-28T09:32:25Z</time>
      </trkpt>
      <trkpt lat="44.13262" lon="2.24303">
        <ele>352</ele>
        <time>2024-07-28T09:32:49Z</time>
      </trkpt>
      <trkpt lat="44.1325" lon="2.24309">
        <ele>353</ele>
        <time>2024-07-28T09:33:06Z</time>
      </trkpt>
      <trkpt lat="44.13221" lon="2.24318">
        <ele>359</ele>
        <time>2024-07-28T09:33:46Z</time>
      </trkpt>
      <trkpt lat="44.13195" lon="2.24317">
        <ele>365</ele>
        <time>2024-07-28T09:34:20Z</time>
      </trkpt>
      <trkpt lat="44.13141" lon="2.24327">
        <ele>375</ele>
        <time>2024-07-28T09:35:33Z</time>
      </trkpt>
      <trkpt lat="44.13101" lon="2.24329">
        <ele>382</ele>
        <time>2024-07-28T09:36:26Z</time>
      </trkpt>
      <trkpt lat="44.13076" lon="2.24328">
        <ele>385</ele>
        <time>2024-07-28T09:37:00Z</time>
      </trkpt>
      <trkpt lat="44.13049" lon="2.24333">
        <ele>387</ele>
        <time>2024-07-28T09:37:36Z</time>
      </trkpt>
      <trkpt lat="44.1299" lon="2.24328">
        <ele>392</ele>
        <time>2024-07-28T09:38:55Z</time>
      </trkpt>
      <trkpt lat="44.12964" lon="2.24329">
        <ele>393</ele>
        <time>2024-07-28T09:39:30Z</time>
      </trkpt>
      <trkpt lat="44.12937" lon="2.24335">
        <ele>394</ele>
        <time>2024-07-28T09:40:06Z</time>
      </trkpt>
      <trkpt lat="44.12866" lon="2.24448">
        <ele>410</ele>
        <time>2024-07-28T09:42:30Z</time>
      </trkpt>
      <trkpt lat="44.12852" lon="2.24464">
        <ele>411</ele>
        <time>2024-07-28T09:42:54Z</time>
      </trkpt>
      <trkpt lat="44.12829" lon="2.245">
        <ele>412</ele>
        <time>2024-07-28T09:43:40Z</time>
      </trkpt>
      <trkpt lat="44.12815" lon="2.24517">
        <ele>415</ele>
        <time>2024-07-28T09:44:05Z</time>
      </trkpt>
      <trkpt lat="44.12752" lon="2.24578">
        <ele>420</ele>
        <time>2024-07-28T09:45:48Z</time>
      </trkpt>
      <trkpt lat="44.12725" lon="2.24596">
        <ele>422</ele>
        <time>2024-07-28T09:46:27Z</time>
      </trkpt>
      <trkpt lat="44.12714" lon="2.24599">
        <ele>422</ele>
        <time>2024-07-28T09:46:42Z</time>
      </trkpt>
      <trkpt lat="44.12661" lon="2.24595">
        <ele>424</ele>
        <time>2024-07-28T09:47:53Z</time>
      </trkpt>
      <trkpt lat="44.1265" lon="2.24591">
        <ele>425</ele>
        <time>2024-07-28T09:48:08Z</time>
      </trkpt>
      <trkpt lat="44.12633" lon="2.24589">
        <ele>425</ele>
        <time>2024-07-28T09:48:31Z</time>
      </trkpt>
      <trkpt lat="44.12622" lon="2.24595">
        <ele>426</ele>
        <time>2024-07-28T09:48:47Z</time>
      </trkpt>
      <trkpt lat="44.12617" lon="2.24612">
        <ele>426</ele>
        <time>2024-07-28T09:49:05Z</time>
      </trkpt>
      <trkpt lat="44.12612" lon="2.24644">
        <ele>427</ele>
        <time>2024-07-28T09:49:36Z</time>
      </trkpt>
      <trkpt lat="44.12615" lon="2.24656">
        <ele>427</ele>
        <time>2024-07-28T09:49:48Z</time>
      </trkpt>
      <trkpt lat="44.12617" lon="2.24682">
        <ele>427</ele>
        <time>2024-07-28T09:50:13Z</time>
      </trkpt>
      <trkpt lat="44.12613" lon="2.24694">
        <ele>428</ele>
        <time>2024-07-28T09:50:26Z</time>
      </trkpt>
      <trkpt lat="44.12605" lon="2.24704">
        <ele>429</ele>
        <time>2024-07-28T09:50:40Z</time>
      </trkpt>
      <trkpt lat="44.12581" lon="2.2473">
        <ele>430</ele>
        <time>2024-07-28T09:51:21Z</time>
      </trkpt>
      <trkpt lat="44.1257" lon="2.24732">
        <ele>430</ele>
        <time>2024-07-28T09:51:36Z</time>
      </trkpt>
      <trkpt lat="44.12563" lon="2.2472">
        <ele>430</ele>
        <time>2024-07-28T09:51:50Z</time>
      </trkpt>
      <trkpt lat="44.12545" lon="2.24697">
        <ele>430</ele>
        <time>2024-07-28T09:52:23Z</time>
      </trkpt>
      <trkpt lat="44.12545" lon="2.24652">
        <ele>430</ele>
        <time>2024-07-28T09:53:06Z</time>
      </trkpt>
      <trkpt lat="44.12542" lon="2.24638">
        <ele>429</ele>
        <time>2024-07-28T09:53:20Z</time>
      </trkpt>
      <trkpt lat="44.12537" lon="2.24624">
        <ele>429</ele>
        <time>2024-07-28T09:53:35Z</time>
      </trkpt>
      <trkpt lat="44.12529" lon="2.24614">
        <ele>429</ele>
        <time>2024-07-28T09:53:49Z</time>
      </trkpt>
      <trkpt lat="44.1252" lon="2.24612">
        <ele>429</ele>
        <time>2024-07-28T09:54:02Z</time>
      </trkpt>
      <trkpt lat="44.12512" lon="2.24616">
        <ele>429</ele>
        <time>2024-07-28T09:54:13Z</time>
      </trkpt>
      <trkpt lat="44.12489" lon="2.2464">
        <ele>431</ele>
        <time>2024-07-28T09:54:51Z</time>
      </trkpt>
      <trkpt lat="44.12481" lon="2.24645">
        <ele>431</ele>
        <time>2024-07-28T09:55:03Z</time>
      </trkpt>
      <trkpt lat="44.12473" lon="2.24652">
        <ele>431</ele>
        <time>2024-07-28T09:55:16Z</time>
      </trkpt>
      <trkpt lat="44.12467" lon="2.24648">
        <ele>431</ele>
        <time>2024-07-28T09:55:24Z</time>
      </trkpt>
      <trkpt lat="44.12471" lon="2.24659">
        <ele>431</ele>
        <time>2024-07-28T09:55:36Z</time>
      </trkpt>
      <trkpt lat="44.12488" lon="2.24668">
        <ele>431</ele>
        <time>2024-07-28T09:56:00Z</time>
      </trkpt>
      <trkpt lat="44.12486" lon="2.24684">
        <ele>431</ele>
        <time>2024-07-28T09:56:16Z</time>
      </trkpt>
      <trkpt lat="44.12493" lon="2.2471">
        <ele>431</ele>
        <time>2024-07-28T09:56:43Z</time>
      </trkpt>
      <trkpt lat="44.12498" lon="2.24747">
        <ele>432</ele>
        <time>2024-07-28T09:57:19Z</time>
      </trkpt>
      <trkpt lat="44.12491" lon="2.24755">
        <ele>432</ele>
        <time>2024-07-28T09:57:31Z</time>
      </trkpt>
      <trkpt lat="44.12483" lon="2.24761">
        <ele>431</ele>
        <time>2024-07-28T09:57:43Z</time>
      </trkpt>
      <trkpt lat="44.12474" lon="2.2476">
        <ele>431</ele>
        <time>2024-07-28T09:57:55Z</time>
      </trkpt>
      <trkpt lat="44.12465" lon="2.24752">
        <ele>431</ele>
        <time>2024-07-28T09:58:09Z</time>
      </trkpt>
      <trkpt lat="44.12452" lon="2.24731">
        <ele>431</ele>
        <time>2024-07-28T09:58:36Z</time>
      </trkpt>
      <trkpt lat="44.12443" lon="2.24729">
        <ele>431</ele>
        <time>2024-07-28T09:58:48Z</time>
      </trkpt>
      <trkpt lat="44.12434" lon="2.2474">
        <ele>431</ele>
        <time>2024-07-28T09:59:04Z</time>
      </trkpt>
      <trkpt lat="44.12408" lon="2.24765">
        <ele>429</ele>
        <time>2024-07-28T09:59:46Z</time>
      </trkpt>
      <trkpt lat="44.124" lon="2.24759">
        <ele>428</ele>
        <time>2024-07-28T09:59:58Z</time>
      </trkpt>
      <trkpt lat="44.12392" lon="2.24749">
        <ele>428</ele>
        <time>2024-07-28T10:00:13Z</time>
      </trkpt>
      <trkpt lat="44.1238" lon="2.24725">
        <ele>428</ele>
        <time>2024-07-28T10:00:41Z</time>
      </trkpt>
      <trkpt lat="44.12371" lon="2.24698">
        <ele>429</ele>
        <time>2024-07-28T10:01:09Z</time>
      </trkpt>
      <trkpt lat="44.12339" lon="2.24639">
        <ele>429</ele>
        <time>2024-07-28T10:02:20Z</time>
      </trkpt>
      <trkpt lat="44.12325" lon="2.24601">
        <ele>428</ele>
        <time>2024-07-28T10:03:01Z</time>
      </trkpt>
      <trkpt lat="44.12314" lon="2.24555">
        <ele>427</ele>
        <time>2024-07-28T10:03:47Z</time>
      </trkpt>
      <trkpt lat="44.12314" lon="2.24528">
        <ele>426</ele>
        <time>2024-07-28T10:04:13Z</time>
      </trkpt>
      <trkpt lat="44.12305" lon="2.24459">
        <ele>425</ele>
        <time>2024-07-28T10:05:20Z</time>
      </trkpt>
      <trkpt lat="44.12305" lon="2.24441">
        <ele>425</ele>
        <time>2024-07-28T10:05:38Z</time>
      </trkpt>
    </trkseg>
  </trk>
</gpx>